sensor_id;sensor_type;location;lat;lon;timestamp;P1;P2;P0
45990;PMS5003;31721;41.740;-88.000;2023-04-16T00:00:44;16;13;
45990;PMS5003;31721;41.740;-88.000;2023-04-16T00:03:12;15;14;
45990;PMS5003;31721;41.740;-88.000;2023-04-16T00:05:39;8;8;
45990;PMS5003;31721;41.740;-88.000;2023-04-16T00:08:08;11;11;
45990;PMS5003;31721;41.740;-88.000;2023-04-16T00:10:36;16;11;
45990;PMS5003;31721;41.740;-88.000;2023-04-16T00:13:04;7;6;
45990;PMS5003;31721;41.740;-88.000;2023-04-16T00:15:33;12;10;
45990;PMS5003;31721;41.740;-88.000;2023-04-16T00:18:00;14;11;
45990;PMS5003;31721;41.740;-88.000;2023-04-16T00:20:29;11;11;
45990;PMS5003;31721;41.740;-88.000;2023-04-16T00:22:56;11;9;
45990;PMS5003;31721;41.740;-88.000;2023-04-16T00:25:25;11;9;
45990;PMS5003;31721;41.740;-88.000;2023-04-16T00:27:52;7;7;
45990;PMS5003;31721;41.740;-88.000;2023-04-16T00:30:20;11;10;
45990;PMS5003;31721;41.740;-88.000;2023-04-16T00:32:48;11;9;
45990;PMS5003;31721;41.740;-88.000;2023-04-16T00:35:17;12;12;
45990;PMS5003;31721;41.740;-88.000;2023-04-16T00:37:45;10;10;
45990;PMS5003;31721;41.740;-88.000;2023-04-16T00:40:13;7;6;
45990;PMS5003;31721;41.740;-88.000;2023-04-16T00:42:41;13;12;
45990;PMS5003;31721;41.740;-88.000;2023-04-16T00:45:10;8;6;
45990;PMS5003;31721;41.740;-88.000;2023-04-16T00:47:38;10;9;
45990;PMS5003;31721;41.740;-88.000;2023-04-16T00:50:06;12;11;
45990;PMS5003;31721;41.740;-88.000;2023-04-16T00:52:36;6;6;
45990;PMS5003;31721;41.740;-88.000;2023-04-16T00:55:05;10;9;
45990;PMS5003;31721;41.740;-88.000;2023-04-16T00:57:34;16;13;
45990;PMS5003;31721;41.740;-88.000;2023-04-16T01:00:03;8;7;
45990;PMS5003;31721;41.740;-88.000;2023-04-16T01:02:32;12;11;
45990;PMS5003;31721;41.740;-88.000;2023-04-16T01:05:00;9;9;
45990;PMS5003;31721;41.740;-88.000;2023-04-16T01:07:30;14;13;
45990;PMS5003;31721;41.740;-88.000;2023-04-16T01:09:59;9;8;
45990;PMS5003;31721;41.740;-88.000;2023-04-16T01:12:27;12;10;
45990;PMS5003;31721;41.740;-88.000;2023-04-16T01:14:55;7;7;
45990;PMS5003;31721;41.740;-88.000;2023-04-16T01:17:24;8;7;
45990;PMS5003;31721;41.740;-88.000;2023-04-16T01:19:52;21;21;
45990;PMS5003;31721;41.740;-88.000;2023-04-16T01:22:23;9;9;
45990;PMS5003;31721;41.740;-88.000;2023-04-16T01:24:52;7;7;
45990;PMS5003;31721;41.740;-88.000;2023-04-16T01:27:20;9;9;
45990;PMS5003;31721;41.740;-88.000;2023-04-16T01:29:48;12;11;
45990;PMS5003;31721;41.740;-88.000;2023-04-16T01:32:16;15;15;
45990;PMS5003;31721;41.740;-88.000;2023-04-16T01:34:44;14;14;
45990;PMS5003;31721;41.740;-88.000;2023-04-16T01:37:12;20;20;
45990;PMS5003;31721;41.740;-88.000;2023-04-16T01:39:40;18;17;
45990;PMS5003;31721;41.740;-88.000;2023-04-16T01:42:08;30;29;
45990;PMS5003;31721;41.740;-88.000;2023-04-16T01:44:35;18;18;
45990;PMS5003;31721;41.740;-88.000;2023-04-16T01:47:04;48;48;
45990;PMS5003;31721;41.740;-88.000;2023-04-16T01:49:33;41;40;
45990;PMS5003;31721;41.740;-88.000;2023-04-16T01:52:01;17;16;
45990;PMS5003;31721;41.740;-88.000;2023-04-16T01:54:30;56;56;
45990;PMS5003;31721;41.740;-88.000;2023-04-16T01:56:59;51;50;
45990;PMS5003;31721;41.740;-88.000;2023-04-16T01:59:27;41;41;
45990;PMS5003;31721;41.740;-88.000;2023-04-16T02:01:56;58;57;
45990;PMS5003;31721;41.740;-88.000;2023-04-16T02:04:25;40;40;
45990;PMS5003;31721;41.740;-88.000;2023-04-16T02:06:53;26;24;
45990;PMS5003;31721;41.740;-88.000;2023-04-16T02:09:21;32;32;
45990;PMS5003;31721;41.740;-88.000;2023-04-16T02:11:50;34;34;
45990;PMS5003;31721;41.740;-88.000;2023-04-16T02:14:22;26;26;
45990;PMS5003;31721;41.740;-88.000;2023-04-16T02:16:51;25;24;
45990;PMS5003;31721;41.740;-88.000;2023-04-16T02:19:19;21;21;
45990;PMS5003;31721;41.740;-88.000;2023-04-16T02:21:47;30;30;
45990;PMS5003;31721;41.740;-88.000;2023-04-16T02:24:17;22;22;
45990;PMS5003;31721;41.740;-88.000;2023-04-16T02:26:45;73;73;
45990;PMS5003;31721;41.740;-88.000;2023-04-16T02:29:14;49;47;
45990;PMS5003;31721;41.740;-88.000;2023-04-16T02:31:42;45;45;
45990;PMS5003;31721;41.740;-88.000;2023-04-16T02:34:09;8;8;
45990;PMS5003;31721;41.740;-88.000;2023-04-16T02:36:38;8;8;
45990;PMS5003;31721;41.740;-88.000;2023-04-16T02:39:06;10;10;
45990;PMS5003;31721;41.740;-88.000;2023-04-16T02:41:35;10;10;
45990;PMS5003;31721;41.740;-88.000;2023-04-16T02:44:02;34;34;
45990;PMS5003;31721;41.740;-88.000;2023-04-16T02:46:30;28;28;
45990;PMS5003;31721;41.740;-88.000;2023-04-16T02:48:58;44;43;
45990;PMS5003;31721;41.740;-88.000;2023-04-16T02:51:26;29;28;
45990;PMS5003;31721;41.740;-88.000;2023-04-16T02:53:54;27;27;
45990;PMS5003;31721;41.740;-88.000;2023-04-16T02:56:22;53;51;
45990;PMS5003;31721;41.740;-88.000;2023-04-16T02:58:49;27;27;
45990;PMS5003;31721;41.740;-88.000;2023-04-16T03:01:18;30;30;
45990;PMS5003;31721;41.740;-88.000;2023-04-16T03:03:46;53;52;
45990;PMS5003;31721;41.740;-88.000;2023-04-16T03:06:14;38;36;
45990;PMS5003;31721;41.740;-88.000;2023-04-16T03:08:42;50;50;
45990;PMS5003;31721;41.740;-88.000;2023-04-16T03:11:10;47;45;
45990;PMS5003;31721;41.740;-88.000;2023-04-16T03:13:38;28;26;
45990;PMS5003;31721;41.740;-88.000;2023-04-16T03:16:07;25;21;
45990;PMS5003;31721;41.740;-88.000;2023-04-16T03:18:35;26;25;
45990;PMS5003;31721;41.740;-88.000;2023-04-16T03:21:03;34;34;
45990;PMS5003;31721;41.740;-88.000;2023-04-16T03:23:31;36;35;
45990;PMS5003;31721;41.740;-88.000;2023-04-16T03:26:00;29;29;
45990;PMS5003;31721;41.740;-88.000;2023-04-16T03:28:28;26;26;
45990;PMS5003;31721;41.740;-88.000;2023-04-16T03:30:57;27;25;
45990;PMS5003;31721;41.740;-88.000;2023-04-16T03:33:25;29;29;
45990;PMS5003;31721;41.740;-88.000;2023-04-16T03:35:54;28;27;
45990;PMS5003;31721;41.740;-88.000;2023-04-16T03:38:23;27;27;
45990;PMS5003;31721;41.740;-88.000;2023-04-16T03:40:51;26;26;
45990;PMS5003;31721;41.740;-88.000;2023-04-16T03:43:19;40;39;
45990;PMS5003;31721;41.740;-88.000;2023-04-16T03:45:47;29;27;
45990;PMS5003;31721;41.740;-88.000;2023-04-16T03:48:15;10;9;
45990;PMS5003;31721;41.740;-88.000;2023-04-16T03:50:44;13;11;
45990;PMS5003;31721;41.740;-88.000;2023-04-16T03:53:12;11;9;
45990;PMS5003;31721;41.740;-88.000;2023-04-16T03:55:40;3;3;
45990;PMS5003;31721;41.740;-88.000;2023-04-16T03:58:08;1;1;
45990;PMS5003;31721;41.740;-88.000;2023-04-16T04:00:36;1;1;
45990;PMS5003;31721;41.740;-88.000;2023-04-16T04:03:06;2;2;
45990;PMS5003;31721;41.740;-88.000;2023-04-16T04:05:35;0;0;
45990;PMS5003;31721;41.740;-88.000;2023-04-16T04:08:03;0;0;
45990;PMS5003;31721;41.740;-88.000;2023-04-16T04:10:31;2;1;
45990;PMS5003;31721;41.740;-88.000;2023-04-16T04:13:01;2;1;
45990;PMS5003;31721;41.740;-88.000;2023-04-16T04:15:30;1;0;
45990;PMS5003;31721;41.740;-88.000;2023-04-16T04:17:58;0;0;
45990;PMS5003;31721;41.740;-88.000;2023-04-16T04:20:26;1;0;
45990;PMS5003;31721;41.740;-88.000;2023-04-16T04:22:54;1;1;
45990;PMS5003;31721;41.740;-88.000;2023-04-16T04:25:21;7;7;
45990;PMS5003;31721;41.740;-88.000;2023-04-16T04:27:50;8;8;
45990;PMS5003;31721;41.740;-88.000;2023-04-16T04:30:18;13;12;
45990;PMS5003;31721;41.740;-88.000;2023-04-16T04:32:46;10;9;
45990;PMS5003;31721;41.740;-88.000;2023-04-16T04:35:14;3;3;
45990;PMS5003;31721;41.740;-88.000;2023-04-16T04:37:42;1;0;
45990;PMS5003;31721;41.740;-88.000;2023-04-16T04:40:10;1;1;
45990;PMS5003;31721;41.740;-88.000;2023-04-16T04:42:37;1;1;
45990;PMS5003;31721;41.740;-88.000;2023-04-16T04:45:06;2;2;
45990;PMS5003;31721;41.740;-88.000;2023-04-16T04:47:35;0;0;
45990;PMS5003;31721;41.740;-88.000;2023-04-16T04:50:03;2;2;
45990;PMS5003;31721;41.740;-88.000;2023-04-16T04:52:31;3;2;
45990;PMS5003;31721;41.740;-88.000;2023-04-16T04:54:59;0;0;
45990;PMS5003;31721;41.740;-88.000;2023-04-16T04:57:27;3;2;
45990;PMS5003;31721;41.740;-88.000;2023-04-16T04:59:55;1;1;
45990;PMS5003;31721;41.740;-88.000;2023-04-16T05:02:24;3;1;
45990;PMS5003;31721;41.740;-88.000;2023-04-16T05:04:51;8;5;
45990;PMS5003;31721;41.740;-88.000;2023-04-16T05:07:20;1;1;
45990;PMS5003;31721;41.740;-88.000;2023-04-16T05:09:48;2;2;
45990;PMS5003;31721;41.740;-88.000;2023-04-16T05:12:16;4;3;
45990;PMS5003;31721;41.740;-88.000;2023-04-16T05:14:44;1;1;
45990;PMS5003;31721;41.740;-88.000;2023-04-16T05:17:12;1;1;
45990;PMS5003;31721;41.740;-88.000;2023-04-16T05:19:39;2;2;
45990;PMS5003;31721;41.740;-88.000;2023-04-16T05:22:07;5;5;
45990;PMS5003;31721;41.740;-88.000;2023-04-16T05:24:35;4;4;
45990;PMS5003;31721;41.740;-88.000;2023-04-16T05:27:03;4;3;
45990;PMS5003;31721;41.740;-88.000;2023-04-16T05:29:31;2;2;
45990;PMS5003;31721;41.740;-88.000;2023-04-16T05:31:59;6;4;
45990;PMS5003;31721;41.740;-88.000;2023-04-16T05:34:27;4;4;
45990;PMS5003;31721;41.740;-88.000;2023-04-16T05:36:55;4;4;
45990;PMS5003;31721;41.740;-88.000;2023-04-16T05:39:23;4;4;
45990;PMS5003;31721;41.740;-88.000;2023-04-16T05:41:51;5;5;
45990;PMS5003;31721;41.740;-88.000;2023-04-16T05:44:19;7;4;
45990;PMS5003;31721;41.740;-88.000;2023-04-16T05:46:53;4;4;
45990;PMS5003;31721;41.740;-88.000;2023-04-16T05:49:21;6;6;
45990;PMS5003;31721;41.740;-88.000;2023-04-16T05:51:49;4;4;
45990;PMS5003;31721;41.740;-88.000;2023-04-16T05:54:16;6;6;
45990;PMS5003;31721;41.740;-88.000;2023-04-16T05:56:44;4;4;
45990;PMS5003;31721;41.740;-88.000;2023-04-16T05:59:12;5;5;
45990;PMS5003;31721;41.740;-88.000;2023-04-16T06:01:41;5;4;
45990;PMS5003;31721;41.740;-88.000;2023-04-16T06:04:09;8;7;
45990;PMS5003;31721;41.740;-88.000;2023-04-16T06:06:37;6;6;
45990;PMS5003;31721;41.740;-88.000;2023-04-16T06:09:05;5;3;
45990;PMS5003;31721;41.740;-88.000;2023-04-16T06:11:33;4;4;
45990;PMS5003;31721;41.740;-88.000;2023-04-16T06:14:01;4;4;
45990;PMS5003;31721;41.740;-88.000;2023-04-16T06:16:29;4;4;
45990;PMS5003;31721;41.740;-88.000;2023-04-16T06:18:57;9;5;
45990;PMS5003;31721;41.740;-88.000;2023-04-16T06:21:25;4;4;
45990;PMS5003;31721;41.740;-88.000;2023-04-16T06:23:53;7;7;
45990;PMS5003;31721;41.740;-88.000;2023-04-16T06:26:21;4;4;
45990;PMS5003;31721;41.740;-88.000;2023-04-16T06:28:49;5;4;
45990;PMS5003;31721;41.740;-88.000;2023-04-16T06:31:17;6;5;
45990;PMS5003;31721;41.740;-88.000;2023-04-16T06:33:45;9;9;
45990;PMS5003;31721;41.740;-88.000;2023-04-16T06:36:13;9;9;
45990;PMS5003;31721;41.740;-88.000;2023-04-16T06:38:41;14;13;
45990;PMS5003;31721;41.740;-88.000;2023-04-16T06:41:09;13;11;
45990;PMS5003;31721;41.740;-88.000;2023-04-16T06:43:37;10;10;
45990;PMS5003;31721;41.740;-88.000;2023-04-16T06:46:05;13;13;
45990;PMS5003;31721;41.740;-88.000;2023-04-16T06:48:33;12;12;
45990;PMS5003;31721;41.740;-88.000;2023-04-16T06:51:01;12;12;
45990;PMS5003;31721;41.740;-88.000;2023-04-16T06:53:29;19;18;
45990;PMS5003;31721;41.740;-88.000;2023-04-16T06:55:56;23;23;
45990;PMS5003;31721;41.740;-88.000;2023-04-16T06:58:24;22;22;
45990;PMS5003;31721;41.740;-88.000;2023-04-16T07:00:52;20;20;
45990;PMS5003;31721;41.740;-88.000;2023-04-16T07:03:19;25;25;
45990;PMS5003;31721;41.740;-88.000;2023-04-16T07:05:47;30;29;
45990;PMS5003;31721;41.740;-88.000;2023-04-16T07:08:15;25;25;
45990;PMS5003;31721;41.740;-88.000;2023-04-16T07:10:43;32;32;
45990;PMS5003;31721;41.740;-88.000;2023-04-16T07:13:12;26;26;
45990;PMS5003;31721;41.740;-88.000;2023-04-16T07:15:40;60;60;
45990;PMS5003;31721;41.740;-88.000;2023-04-16T07:18:08;27;27;
45990;PMS5003;31721;41.740;-88.000;2023-04-16T07:20:36;46;46;
45990;PMS5003;31721;41.740;-88.000;2023-04-16T07:23:04;43;43;
45990;PMS5003;31721;41.740;-88.000;2023-04-16T07:25:31;41;40;
45990;PMS5003;31721;41.740;-88.000;2023-04-16T07:27:59;77;75;
45990;PMS5003;31721;41.740;-88.000;2023-04-16T07:30:27;78;78;
45990;PMS5003;31721;41.740;-88.000;2023-04-16T07:32:55;25;25;
45990;PMS5003;31721;41.740;-88.000;2023-04-16T07:35:23;25;24;
45990;PMS5003;31721;41.740;-88.000;2023-04-16T07:37:51;29;28;
45990;PMS5003;31721;41.740;-88.000;2023-04-16T07:40:20;82;80;
45990;PMS5003;31721;41.740;-88.000;2023-04-16T07:42:48;19;19;
45990;PMS5003;31721;41.740;-88.000;2023-04-16T07:45:17;23;23;
45990;PMS5003;31721;41.740;-88.000;2023-04-16T07:47:45;27;27;
45990;PMS5003;31721;41.740;-88.000;2023-04-16T07:50:12;24;23;
45990;PMS5003;31721;41.740;-88.000;2023-04-16T07:52:40;19;19;
45990;PMS5003;31721;41.740;-88.000;2023-04-16T07:55:08;45;44;
45990;PMS5003;31721;41.740;-88.000;2023-04-16T07:57:36;9;9;
45990;PMS5003;31721;41.740;-88.000;2023-04-16T08:00:04;43;42;
45990;PMS5003;31721;41.740;-88.000;2023-04-16T08:02:33;34;34;
45990;PMS5003;31721;41.740;-88.000;2023-04-16T08:05:02;44;44;
45990;PMS5003;31721;41.740;-88.000;2023-04-16T08:07:31;51;51;
45990;PMS5003;31721;41.740;-88.000;2023-04-16T08:10:00;70;70;
45990;PMS5003;31721;41.740;-88.000;2023-04-16T08:12:28;32;27;
45990;PMS5003;31721;41.740;-88.000;2023-04-16T08:14:56;19;18;
45990;PMS5003;31721;41.740;-88.000;2023-04-16T08:17:24;24;24;
45990;PMS5003;31721;41.740;-88.000;2023-04-16T08:19:52;26;26;
45990;PMS5003;31721;41.740;-88.000;2023-04-16T08:22:20;30;29;
45990;PMS5003;31721;41.740;-88.000;2023-04-16T08:24:48;34;33;
45990;PMS5003;31721;41.740;-88.000;2023-04-16T08:27:15;29;29;
45990;PMS5003;31721;41.740;-88.000;2023-04-16T08:29:43;32;32;
45990;PMS5003;31721;41.740;-88.000;2023-04-16T08:32:11;28;27;
45990;PMS5003;31721;41.740;-88.000;2023-04-16T08:34:40;66;65;
45990;PMS5003;31721;41.740;-88.000;2023-04-16T08:37:08;30;30;
45990;PMS5003;31721;41.740;-88.000;2023-04-16T08:39:36;24;22;
45990;PMS5003;31721;41.740;-88.000;2023-04-16T08:42:04;24;24;
45990;PMS5003;31721;41.740;-88.000;2023-04-16T08:44:37;36;36;
45990;PMS5003;31721;41.740;-88.000;2023-04-16T08:47:10;35;35;
45990;PMS5003;31721;41.740;-88.000;2023-04-16T08:49:42;22;21;
45990;PMS5003;31721;41.740;-88.000;2023-04-16T08:52:12;14;14;
45990;PMS5003;31721;41.740;-88.000;2023-04-16T08:54:47;24;23;
45990;PMS5003;31721;41.740;-88.000;2023-04-16T08:57:31;24;23;
45990;PMS5003;31721;41.740;-88.000;2023-04-16T09:00:05;72;70;
45990;PMS5003;31721;41.740;-88.000;2023-04-16T09:02:34;18;17;
45990;PMS5003;31721;41.740;-88.000;2023-04-16T09:05:04;33;32;
45990;PMS5003;31721;41.740;-88.000;2023-04-16T09:07:33;43;42;
45990;PMS5003;31721;41.740;-88.000;2023-04-16T09:10:02;28;27;
45990;PMS5003;31721;41.740;-88.000;2023-04-16T09:12:31;28;27;
45990;PMS5003;31721;41.740;-88.000;2023-04-16T09:15:00;33;28;
45990;PMS5003;31721;41.740;-88.000;2023-04-16T09:17:29;21;21;
45990;PMS5003;31721;41.740;-88.000;2023-04-16T09:19:57;18;17;
45990;PMS5003;31721;41.740;-88.000;2023-04-16T09:22:24;105;103;
45990;PMS5003;31721;41.740;-88.000;2023-04-16T09:24:52;79;78;
45990;PMS5003;31721;41.740;-88.000;2023-04-16T09:27:20;26;24;
45990;PMS5003;31721;41.740;-88.000;2023-04-16T09:29:51;68;65;
45990;PMS5003;31721;41.740;-88.000;2023-04-16T09:32:23;58;58;
45990;PMS5003;31721;41.740;-88.000;2023-04-16T09:34:54;97;95;
45990;PMS5003;31721;41.740;-88.000;2023-04-16T09:37:23;72;72;
45990;PMS5003;31721;41.740;-88.000;2023-04-16T09:39:52;39;37;
45990;PMS5003;31721;41.740;-88.000;2023-04-16T09:42:23;27;27;
45990;PMS5003;31721;41.740;-88.000;2023-04-16T09:44:53;32;32;
45990;PMS5003;31721;41.740;-88.000;2023-04-16T09:47:22;38;38;
45990;PMS5003;31721;41.740;-88.000;2023-04-16T09:50:03;49;45;
45990;PMS5003;31721;41.740;-88.000;2023-04-16T09:52:35;48;47;
45990;PMS5003;31721;41.740;-88.000;2023-04-16T09:55:03;48;48;
45990;PMS5003;31721;41.740;-88.000;2023-04-16T09:57:32;23;20;
45990;PMS5003;31721;41.740;-88.000;2023-04-16T10:00:05;18;17;
45990;PMS5003;31721;41.740;-88.000;2023-04-16T10:02:37;22;20;
45990;PMS5003;31721;41.740;-88.000;2023-04-16T10:05:06;18;17;
45990;PMS5003;31721;41.740;-88.000;2023-04-16T10:07:35;16;16;
45990;PMS5003;31721;41.740;-88.000;2023-04-16T10:10:03;15;14;
45990;PMS5003;31721;41.740;-88.000;2023-04-16T10:12:32;21;15;
45990;PMS5003;31721;41.740;-88.000;2023-04-16T10:15:00;16;14;
45990;PMS5003;31721;41.740;-88.000;2023-04-16T10:17:27;16;15;
45990;PMS5003;31721;41.740;-88.000;2023-04-16T10:19:57;19;19;
45990;PMS5003;31721;41.740;-88.000;2023-04-16T10:22:26;18;18;
45990;PMS5003;31721;41.740;-88.000;2023-04-16T10:24:54;19;18;
45990;PMS5003;31721;41.740;-88.000;2023-04-16T10:27:23;19;17;
45990;PMS5003;31721;41.740;-88.000;2023-04-16T10:29:53;19;18;
45990;PMS5003;31721;41.740;-88.000;2023-04-16T10:32:21;19;19;
45990;PMS5003;31721;41.740;-88.000;2023-04-16T10:34:51;15;15;
45990;PMS5003;31721;41.740;-88.000;2023-04-16T10:37:18;13;13;
45990;PMS5003;31721;41.740;-88.000;2023-04-16T10:39:54;24;23;
45990;PMS5003;31721;41.740;-88.000;2023-04-16T10:42:21;19;17;
45990;PMS5003;31721;41.740;-88.000;2023-04-16T10:44:49;25;22;
45990;PMS5003;31721;41.740;-88.000;2023-04-16T10:47:17;26;22;
45990;PMS5003;31721;41.740;-88.000;2023-04-16T10:49:45;25;22;
45990;PMS5003;31721;41.740;-88.000;2023-04-16T10:52:15;26;26;
45990;PMS5003;31721;41.740;-88.000;2023-04-16T10:54:42;27;22;
45990;PMS5003;31721;41.740;-88.000;2023-04-16T10:57:14;24;24;
45990;PMS5003;31721;41.740;-88.000;2023-04-16T10:59:46;24;24;
45990;PMS5003;31721;41.740;-88.000;2023-04-16T11:02:15;25;22;
45990;PMS5003;31721;41.740;-88.000;2023-04-16T11:04:45;25;22;
45990;PMS5003;31721;41.740;-88.000;2023-04-16T11:07:15;28;24;
45990;PMS5003;31721;41.740;-88.000;2023-04-16T11:09:45;28;25;
45990;PMS5003;31721;41.740;-88.000;2023-04-16T11:12:18;21;21;
45990;PMS5003;31721;41.740;-88.000;2023-04-16T11:14:48;30;26;
45990;PMS5003;31721;41.740;-88.000;2023-04-16T11:17:17;20;16;
45990;PMS5003;31721;41.740;-88.000;2023-04-16T11:19:46;17;12;
45990;PMS5003;31721;41.740;-88.000;2023-04-16T11:22:15;16;14;
45990;PMS5003;31721;41.740;-88.000;2023-04-16T11:24:43;16;15;
45990;PMS5003;31721;41.740;-88.000;2023-04-16T11:27:12;16;15;
45990;PMS5003;31721;41.740;-88.000;2023-04-16T11:29:41;20;19;
45990;PMS5003;31721;41.740;-88.000;2023-04-16T11:32:09;21;17;
45990;PMS5003;31721;41.740;-88.000;2023-04-16T11:34:46;17;12;
45990;PMS5003;31721;41.740;-88.000;2023-04-16T11:37:14;16;15;
45990;PMS5003;31721;41.740;-88.000;2023-04-16T11:39:47;13;13;
45990;PMS5003;31721;41.740;-88.000;2023-04-16T11:42:20;17;15;
45990;PMS5003;31721;41.740;-88.000;2023-04-16T11:44:52;15;15;
45990;PMS5003;31721;41.740;-88.000;2023-04-16T11:47:21;19;15;
45990;PMS5003;31721;41.740;-88.000;2023-04-16T11:49:50;10;8;
45990;PMS5003;31721;41.740;-88.000;2023-04-16T11:52:26;15;9;
45990;PMS5003;31721;41.740;-88.000;2023-04-16T11:54:54;17;15;
45990;PMS5003;31721;41.740;-88.000;2023-04-16T11:57:26;8;8;
45990;PMS5003;31721;41.740;-88.000;2023-04-16T11:59:55;13;9;
45990;PMS5003;31721;41.740;-88.000;2023-04-16T12:02:41;13;11;
45990;PMS5003;31721;41.740;-88.000;2023-04-16T12:05:25;6;6;
45990;PMS5003;31721;41.740;-88.000;2023-04-16T12:07:54;14;11;
45990;PMS5003;31721;41.740;-88.000;2023-04-16T12:10:23;14;9;
45990;PMS5003;31721;41.740;-88.000;2023-04-16T12:12:51;7;5;
45990;PMS5003;31721;41.740;-88.000;2023-04-16T12:15:19;4;4;
45990;PMS5003;31721;41.740;-88.000;2023-04-16T12:17:47;4;4;
45990;PMS5003;31721;41.740;-88.000;2023-04-16T12:20:15;5;5;
45990;PMS5003;31721;41.740;-88.000;2023-04-16T12:22:44;1;1;
45990;PMS5003;31721;41.740;-88.000;2023-04-16T12:25:14;4;3;
45990;PMS5003;31721;41.740;-88.000;2023-04-16T12:27:44;3;3;
45990;PMS5003;31721;41.740;-88.000;2023-04-16T12:30:14;2;1;
45990;PMS5003;31721;41.740;-88.000;2023-04-16T12:32:43;1;1;
45990;PMS5003;31721;41.740;-88.000;2023-04-16T12:35:28;1;1;
45990;PMS5003;31721;41.740;-88.000;2023-04-16T12:37:57;2;1;
45990;PMS5003;31721;41.740;-88.000;2023-04-16T12:40:25;1;1;
45990;PMS5003;31721;41.740;-88.000;2023-04-16T12:42:53;1;1;
45990;PMS5003;31721;41.740;-88.000;2023-04-16T12:45:23;2;2;
45990;PMS5003;31721;41.740;-88.000;2023-04-16T12:47:51;0;0;
45990;PMS5003;31721;41.740;-88.000;2023-04-16T12:50:20;1;1;
45990;PMS5003;31721;41.740;-88.000;2023-04-16T12:52:48;1;1;
45990;PMS5003;31721;41.740;-88.000;2023-04-16T12:55:16;1;1;
45990;PMS5003;31721;41.740;-88.000;2023-04-16T12:57:44;0;0;
45990;PMS5003;31721;41.740;-88.000;2023-04-16T13:00:13;0;0;
45990;PMS5003;31721;41.740;-88.000;2023-04-16T13:02:41;0;0;
45990;PMS5003;31721;41.740;-88.000;2023-04-16T13:05:10;1;0;
45990;PMS5003;31721;41.740;-88.000;2023-04-16T13:07:38;0;0;
45990;PMS5003;31721;41.740;-88.000;2023-04-16T13:10:06;0;0;
45990;PMS5003;31721;41.740;-88.000;2023-04-16T13:12:34;0;0;
45990;PMS5003;31721;41.740;-88.000;2023-04-16T13:15:02;0;0;
45990;PMS5003;31721;41.740;-88.000;2023-04-16T13:17:30;1;0;
45990;PMS5003;31721;41.740;-88.000;2023-04-16T13:19:59;0;0;
45990;PMS5003;31721;41.740;-88.000;2023-04-16T13:22:27;1;0;
45990;PMS5003;31721;41.740;-88.000;2023-04-16T13:24:55;0;0;
45990;PMS5003;31721;41.740;-88.000;2023-04-16T13:27:23;1;1;
45990;PMS5003;31721;41.740;-88.000;2023-04-16T13:29:51;0;0;
45990;PMS5003;31721;41.740;-88.000;2023-04-16T13:32:19;0;0;
45990;PMS5003;31721;41.740;-88.000;2023-04-16T13:34:47;0;0;
45990;PMS5003;31721;41.740;-88.000;2023-04-16T13:37:16;0;0;
45990;PMS5003;31721;41.740;-88.000;2023-04-16T13:39:44;0;0;
45990;PMS5003;31721;41.740;-88.000;2023-04-16T13:42:12;0;0;
45990;PMS5003;31721;41.740;-88.000;2023-04-16T13:44:40;0;0;
45990;PMS5003;31721;41.740;-88.000;2023-04-16T13:47:08;0;0;
45990;PMS5003;31721;41.740;-88.000;2023-04-16T13:49:35;0;0;
45990;PMS5003;31721;41.740;-88.000;2023-04-16T13:52:04;0;0;
45990;PMS5003;31721;41.740;-88.000;2023-04-16T13:54:32;0;0;
45990;PMS5003;31721;41.740;-88.000;2023-04-16T13:57:00;0;0;
45990;PMS5003;31721;41.740;-88.000;2023-04-16T13:59:28;0;0;
45990;PMS5003;31721;41.740;-88.000;2023-04-16T14:01:56;0;0;
45990;PMS5003;31721;41.740;-88.000;2023-04-16T14:04:24;1;1;
45990;PMS5003;31721;41.740;-88.000;2023-04-16T14:06:52;0;0;
45990;PMS5003;31721;41.740;-88.000;2023-04-16T14:09:21;0;0;
45990;PMS5003;31721;41.740;-88.000;2023-04-16T14:11:49;0;0;
45990;PMS5003;31721;41.740;-88.000;2023-04-16T14:14:17;0;0;
45990;PMS5003;31721;41.740;-88.000;2023-04-16T14:16:45;0;0;
45990;PMS5003;31721;41.740;-88.000;2023-04-16T14:19:13;0;0;
45990;PMS5003;31721;41.740;-88.000;2023-04-16T14:21:41;0;0;
45990;PMS5003;31721;41.740;-88.000;2023-04-16T14:24:10;1;1;
45990;PMS5003;31721;41.740;-88.000;2023-04-16T14:26:38;0;0;
45990;PMS5003;31721;41.740;-88.000;2023-04-16T14:29:06;0;0;
45990;PMS5003;31721;41.740;-88.000;2023-04-16T14:31:34;0;0;
45990;PMS5003;31721;41.740;-88.000;2023-04-16T14:34:02;2;0;
45990;PMS5003;31721;41.740;-88.000;2023-04-16T14:36:30;0;0;
45990;PMS5003;31721;41.740;-88.000;2023-04-16T14:38:59;1;0;
45990;PMS5003;31721;41.740;-88.000;2023-04-16T14:41:27;0;0;
45990;PMS5003;31721;41.740;-88.000;2023-04-16T14:43:57;2;1;
45990;PMS5003;31721;41.740;-88.000;2023-04-16T14:46:25;0;0;
45990;PMS5003;31721;41.740;-88.000;2023-04-16T14:48:53;1;1;
45990;PMS5003;31721;41.740;-88.000;2023-04-16T14:51:21;1;1;
45990;PMS5003;31721;41.740;-88.000;2023-04-16T14:53:49;1;1;
45990;PMS5003;31721;41.740;-88.000;2023-04-16T14:56:17;0;0;
45990;PMS5003;31721;41.740;-88.000;2023-04-16T14:58:46;0;0;
45990;PMS5003;31721;41.740;-88.000;2023-04-16T15:01:14;0;0;
45990;PMS5003;31721;41.740;-88.000;2023-04-16T15:03:42;0;0;
45990;PMS5003;31721;41.740;-88.000;2023-04-16T15:06:11;1;0;
45990;PMS5003;31721;41.740;-88.000;2023-04-16T15:08:38;0;0;
45990;PMS5003;31721;41.740;-88.000;2023-04-16T15:11:06;1;1;
45990;PMS5003;31721;41.740;-88.000;2023-04-16T15:13:35;0;0;
45990;PMS5003;31721;41.740;-88.000;2023-04-16T15:16:03;1;1;
45990;PMS5003;31721;41.740;-88.000;2023-04-16T15:18:31;2;1;
45990;PMS5003;31721;41.740;-88.000;2023-04-16T15:20:59;1;1;
45990;PMS5003;31721;41.740;-88.000;2023-04-16T15:23:27;1;1;
45990;PMS5003;31721;41.740;-88.000;2023-04-16T15:25:56;1;1;
45990;PMS5003;31721;41.740;-88.000;2023-04-16T15:28:24;2;1;
45990;PMS5003;31721;41.740;-88.000;2023-04-16T15:30:52;2;1;
45990;PMS5003;31721;41.740;-88.000;2023-04-16T15:33:20;2;1;
45990;PMS5003;31721;41.740;-88.000;2023-04-16T15:35:48;0;0;
45990;PMS5003;31721;41.740;-88.000;2023-04-16T15:38:17;1;0;
45990;PMS5003;31721;41.740;-88.000;2023-04-16T15:40:45;1;1;
45990;PMS5003;31721;41.740;-88.000;2023-04-16T15:43:14;0;0;
45990;PMS5003;31721;41.740;-88.000;2023-04-16T15:45:42;1;1;
45990;PMS5003;31721;41.740;-88.000;2023-04-16T15:48:11;0;0;
45990;PMS5003;31721;41.740;-88.000;2023-04-16T15:50:39;0;0;
45990;PMS5003;31721;41.740;-88.000;2023-04-16T15:53:07;0;0;
45990;PMS5003;31721;41.740;-88.000;2023-04-16T15:55:36;0;0;
45990;PMS5003;31721;41.740;-88.000;2023-04-16T15:58:04;0;0;
45990;PMS5003;31721;41.740;-88.000;2023-04-16T16:00:31;0;0;
45990;PMS5003;31721;41.740;-88.000;2023-04-16T16:03:00;1;1;
45990;PMS5003;31721;41.740;-88.000;2023-04-16T16:05:29;0;0;
45990;PMS5003;31721;41.740;-88.000;2023-04-16T16:07:57;0;0;
45990;PMS5003;31721;41.740;-88.000;2023-04-16T16:10:25;0;0;